createdAt,value
2023-02-14T00:00:48.259Z,8.90
2023-02-14T00:03:15.055Z,9.20
2023-02-14T00:05:41.834Z,9.18
2023-02-14T00:08:08.546Z,9.65
2023-02-14T00:10:35.184Z,9.65
2023-02-14T00:13:01.770Z,8.93
2023-02-14T00:15:28.318Z,9.15
2023-02-14T00:17:59.677Z,9.50
2023-02-14T00:20:28.172Z,9.57
2023-02-14T00:22:54.958Z,8.90
2023-02-14T00:25:21.874Z,9.30
2023-02-14T00:27:48.472Z,9.52
2023-02-14T00:30:15.305Z,9.13
2023-02-14T00:32:42.818Z,10.32
2023-02-14T00:35:10.599Z,10.07
2023-02-14T00:37:37.403Z,10.33
2023-02-14T00:40:05.724Z,9.90
2023-02-14T00:42:32.352Z,9.43
2023-02-14T00:44:58.992Z,10.15
2023-02-14T00:47:25.701Z,10.40
2023-02-14T00:49:52.417Z,10.27
2023-02-14T00:52:19.350Z,9.98
2023-02-14T00:54:46.025Z,10.47
2023-02-14T00:57:12.629Z,11.03
2023-02-14T00:59:39.303Z,10.75
2023-02-14T01:02:06.049Z,11.20
2023-02-14T01:04:32.638Z,10.57
2023-02-14T01:06:59.182Z,11.03
2023-02-14T01:09:25.756Z,10.85
2023-02-14T01:11:52.394Z,10.70
2023-02-14T01:14:19.096Z,10.63
2023-02-14T01:16:45.705Z,10.60
2023-02-14T01:19:12.357Z,10.23
2023-02-14T01:21:38.924Z,10.40
2023-02-14T01:24:07.934Z,10.50
2023-02-14T01:26:35.503Z,11.15
2023-02-14T01:29:03.880Z,11.30
2023-02-14T01:31:32.900Z,11.57
2023-02-14T01:33:59.973Z,11.97
2023-02-14T01:36:33.053Z,11.43
2023-02-14T01:39:03.318Z,11.27
2023-02-14T01:41:32.866Z,12.03
2023-02-14T01:43:59.484Z,11.20
2023-02-14T01:46:28.355Z,12.13
2023-02-14T01:49:01.839Z,11.90
2023-02-14T01:51:30.236Z,12.53
2023-02-14T01:53:57.333Z,11.75
2023-02-14T01:56:34.854Z,11.30
2023-02-14T01:59:04.862Z,11.73
2023-02-14T02:01:31.601Z,12.30
2023-02-14T02:04:06.949Z,12.73
2023-02-14T02:06:37.891Z,12.30
2023-02-14T02:09:14.110Z,12.67
2023-02-14T02:11:42.303Z,11.93
2023-02-14T02:14:18.582Z,12.93
2023-02-14T02:16:45.252Z,12.53
2023-02-14T02:19:20.902Z,13.13
2023-02-14T02:22:08.958Z,13.00
2023-02-14T02:24:40.829Z,14.00
2023-02-14T02:27:08.591Z,13.60
2023-02-14T02:30:15.756Z,13.87
2023-02-14T02:33:20.104Z,13.57
2023-02-14T02:35:54.616Z,13.60
2023-02-14T02:38:52.178Z,14.07
2023-02-14T02:41:33.612Z,14.73
2023-02-14T02:44:30.434Z,13.97
2023-02-14T02:47:05.905Z,14.67
2023-02-14T02:50:03.583Z,15.33
2023-02-14T02:53:07.729Z,14.50
2023-02-14T02:56:03.796Z,14.93
2023-02-14T02:58:35.811Z,14.27
2023-02-14T03:01:07.955Z,14.57
2023-02-14T03:03:54.615Z,14.47
2023-02-14T03:06:21.334Z,14.33
2023-02-14T03:08:47.867Z,16.33
2023-02-14T03:11:15.274Z,15.23
2023-02-14T03:14:00.855Z,16.37
2023-02-14T03:16:31.858Z,16.53
2023-02-14T03:19:40.414Z,17.10
2023-02-14T03:22:28.422Z,17.23
2023-02-14T03:25:04.804Z,17.70
2023-02-14T03:27:39.447Z,16.90
2023-02-14T03:30:16.000Z,16.07
2023-02-14T03:32:48.476Z,17.10
2023-02-14T03:35:36.566Z,17.10
2023-02-14T03:38:27.249Z,17.30
2023-02-14T03:41:12.599Z,17.60
2023-02-14T03:43:59.269Z,18.83
2023-02-14T03:46:29.225Z,19.10
2023-02-14T03:49:00.220Z,18.70
2023-02-14T03:51:34.265Z,18.20
2023-02-14T03:54:03.022Z,18.23
2023-02-14T03:56:45.440Z,19.40
2023-02-14T03:59:30.184Z,17.90
2023-02-14T04:02:21.687Z,18.83
2023-02-14T04:04:51.432Z,18.03
2023-02-14T04:07:21.184Z,17.70
2023-02-14T04:09:48.905Z,18.43
2023-02-14T04:12:19.837Z,18.30
2023-02-14T04:14:50.572Z,18.23
2023-02-14T04:17:35.441Z,18.53
2023-02-14T04:20:02.029Z,18.13
2023-02-14T04:22:28.574Z,18.93
2023-02-14T04:24:55.098Z,20.13
2023-02-14T04:27:21.667Z,20.33
2023-02-14T04:29:49.795Z,19.27
2023-02-14T04:32:21.781Z,20.10
2023-02-14T04:34:48.710Z,19.73
2023-02-14T04:37:18.280Z,19.10
2023-02-14T04:39:44.881Z,20.07
2023-02-14T04:42:12.634Z,20.10
2023-02-14T04:44:39.284Z,19.80
2023-02-14T04:47:06.960Z,19.13
2023-02-14T04:49:33.932Z,20.07
2023-02-14T04:52:00.559Z,19.90
2023-02-14T04:54:27.415Z,19.77
2023-02-14T04:56:54.027Z,20.77
2023-02-14T04:59:20.841Z,20.67
2023-02-14T05:01:47.421Z,21.77
2023-02-14T05:04:14.410Z,21.60
2023-02-14T05:06:40.995Z,21.93
2023-02-14T05:09:07.740Z,22.33
2023-02-14T05:11:34.282Z,22.40
2023-02-14T05:14:00.809Z,21.73
2023-02-14T05:16:27.487Z,22.83
2023-02-14T05:18:54.261Z,21.80
2023-02-14T05:21:20.836Z,21.63
2023-02-14T05:23:47.433Z,20.20
2023-02-14T05:26:14.218Z,20.13
2023-02-14T05:28:41.145Z,19.23
2023-02-14T05:31:08.904Z,20.10
2023-02-14T05:33:35.619Z,19.47
2023-02-14T05:36:02.814Z,20.20
2023-02-14T05:38:30.675Z,19.90
2023-02-14T05:40:57.385Z,21.40
2023-02-14T05:43:24.093Z,21.70
2023-02-14T05:45:50.720Z,21.77
2023-02-14T05:48:17.586Z,20.67
2023-02-14T05:50:45.563Z,21.90
2023-02-14T05:53:13.105Z,22.43
2023-02-14T05:55:39.805Z,21.73
2023-02-14T05:58:06.887Z,20.63
2023-02-14T06:00:34.484Z,19.73
2023-02-14T06:03:01.557Z,19.13
2023-02-14T06:05:28.323Z,19.47
2023-02-14T06:07:54.857Z,18.87
2023-02-14T06:10:24.909Z,20.23
2023-02-14T06:12:53.408Z,22.20
2023-02-14T06:15:20.293Z,21.67
2023-02-14T06:17:54.599Z,22.00
2023-02-14T06:20:22.100Z,23.00
2023-02-14T06:22:48.882Z,22.50
2023-02-14T06:25:15.850Z,21.53
2023-02-14T06:27:42.760Z,22.50
2023-02-14T06:30:10.661Z,21.67
2023-02-14T06:32:37.387Z,22.77
2023-02-14T06:35:04.283Z,22.30
2023-02-14T06:37:30.822Z,22.73
2023-02-14T06:39:57.527Z,22.23
2023-02-14T06:42:24.162Z,21.70
2023-02-14T06:44:50.849Z,22.30
2023-02-14T06:47:17.398Z,20.90
2023-02-14T06:49:43.958Z,21.10
2023-02-14T06:52:10.834Z,21.77
2023-02-14T06:54:37.359Z,21.53
2023-02-14T06:57:03.995Z,21.43
2023-02-14T06:59:30.842Z,20.53
2023-02-14T07:01:57.376Z,21.40
2023-02-14T07:04:23.978Z,21.20
2023-02-14T07:06:50.757Z,21.90
2023-02-14T07:09:18.307Z,21.97
2023-02-14T07:11:45.820Z,21.47
2023-02-14T07:14:13.097Z,21.33
2023-02-14T07:16:39.800Z,20.60
2023-02-14T07:19:06.414Z,22.00
2023-02-14T07:21:33.025Z,20.53
2023-02-14T07:24:00.822Z,21.83
2023-02-14T07:26:27.438Z,21.07
2023-02-14T07:28:54.046Z,20.53
2023-02-14T07:31:22.726Z,20.63
2023-02-14T07:33:51.319Z,21.60
2023-02-14T07:36:18.458Z,20.57
2023-02-14T07:38:45.051Z,20.30
2023-02-14T07:41:11.644Z,20.80
2023-02-14T07:43:39.733Z,20.40
2023-02-14T07:46:06.789Z,20.30
2023-02-14T07:48:34.440Z,20.93
2023-02-14T07:51:01.828Z,20.07
2023-02-14T07:53:28.595Z,21.67
2023-02-14T07:55:55.455Z,19.60
2023-02-14T07:58:22.072Z,20.25
2023-02-14T08:00:48.995Z,21.10
2023-02-14T08:03:16.130Z,20.50
2023-02-14T08:05:43.174Z,20.17
2023-02-14T08:08:09.837Z,19.73
2023-02-14T08:10:36.450Z,19.87
2023-02-14T08:13:03.719Z,20.47
2023-02-14T08:15:53.843Z,20.67
2023-02-14T08:18:25.458Z,18.70
2023-02-14T08:20:53.279Z,18.80
2023-02-14T08:23:21.058Z,19.70
2023-02-14T08:25:52.688Z,19.17
2023-02-14T08:28:21.916Z,18.88
2023-02-14T08:30:48.601Z,17.52
2023-02-14T08:33:15.213Z,18.23
2023-02-14T08:35:41.984Z,19.13
2023-02-14T08:38:08.606Z,18.00
2023-02-14T08:40:37.125Z,19.05
2023-02-14T08:43:05.659Z,19.08
2023-02-14T08:45:32.818Z,19.23
2023-02-14T08:48:04.493Z,18.63
2023-02-14T08:50:31.174Z,18.52
2023-02-14T08:52:57.956Z,18.02
2023-02-14T08:55:24.677Z,18.20
2023-02-14T08:57:51.272Z,19.10
2023-02-14T09:00:18.214Z,18.30
2023-02-14T09:02:44.818Z,18.27
2023-02-14T09:05:11.481Z,19.10
2023-02-14T09:07:38.048Z,17.88
2023-02-14T09:10:05.165Z,18.13
2023-02-14T09:12:31.727Z,18.75
2023-02-14T09:14:58.373Z,16.90
2023-02-14T09:17:25.007Z,17.13
2023-02-14T09:19:51.644Z,17.88
2023-02-14T09:22:20.253Z,17.02
2023-02-14T09:24:46.935Z,17.08
2023-02-14T09:27:13.539Z,16.60
2023-02-14T09:29:40.149Z,18.20
2023-02-14T09:32:06.885Z,17.33
2023-02-14T09:34:34.987Z,18.08
2023-02-14T09:37:01.605Z,17.67
2023-02-14T09:39:28.182Z,17.52
2023-02-14T09:41:54.710Z,17.00
2023-02-14T09:44:44.431Z,17.50
2023-02-14T09:47:31.489Z,17.75
2023-02-14T09:49:58.840Z,17.80
2023-02-14T09:52:29.214Z,17.25
2023-02-14T09:55:01.156Z,17.55
2023-02-14T09:57:43.396Z,17.23
2023-02-14T10:00:21.800Z,16.98
2023-02-14T10:03:12.616Z,16.88
2023-02-14T10:05:58.145Z,16.27
2023-02-14T10:08:56.048Z,17.38
2023-02-14T10:11:24.888Z,17.33
2023-02-14T10:14:05.307Z,16.73
2023-02-14T10:16:38.716Z,16.63
2023-02-14T10:19:19.123Z,18.55
2023-02-14T10:21:54.334Z,16.83
2023-02-14T10:24:56.161Z,15.85
2023-02-14T10:27:42.528Z,16.98
2023-02-14T10:30:23.767Z,16.92
2023-02-14T10:33:01.942Z,15.70
2023-02-14T10:35:28.448Z,16.05
2023-02-14T10:38:17.469Z,15.77
2023-02-14T10:41:21.345Z,17.38
2023-02-14T10:44:01.776Z,15.93
2023-02-14T10:46:57.790Z,15.40
2023-02-14T10:49:30.268Z,16.10
2023-02-14T10:52:32.204Z,15.85
2023-02-14T10:55:05.604Z,15.65
2023-02-14T10:57:37.022Z,16.38
2023-02-14T11:00:16.734Z,17.08
2023-02-14T11:02:46.941Z,16.15
2023-02-14T11:05:31.176Z,16.10
2023-02-14T11:08:01.956Z,16.42
2023-02-14T11:10:33.065Z,15.65
2023-02-14T11:12:59.826Z,15.23
2023-02-14T11:15:31.505Z,17.40
2023-02-14T11:18:24.975Z,15.23
2023-02-14T11:21:24.379Z,15.15
2023-02-14T11:23:51.576Z,15.15
2023-02-14T11:26:24.757Z,16.10
2023-02-14T11:28:56.811Z,15.45
2023-02-14T11:31:42.837Z,15.85
2023-02-14T11:34:36.599Z,16.13
2023-02-14T11:37:16.165Z,16.42
2023-02-14T11:39:43.035Z,14.98
2023-02-14T11:42:12.981Z,15.65
2023-02-14T11:44:55.901Z,16.02
2023-02-14T11:47:29.411Z,15.45
2023-02-14T11:50:23.696Z,16.40
2023-02-14T11:52:56.426Z,16.50
2023-02-14T11:55:34.029Z,16.20
2023-02-14T11:58:05.391Z,15.85
2023-02-14T12:00:33.508Z,16.00
2023-02-14T12:03:05.019Z,15.93
2023-02-14T12:05:48.667Z,16.48
2023-02-14T12:08:15.904Z,15.80
2023-02-14T12:10:42.553Z,15.65
2023-02-14T12:13:09.053Z,15.50
2023-02-14T12:15:42.727Z,16.55
2023-02-14T12:18:09.297Z,15.52
2023-02-14T12:20:42.651Z,13.50
2023-02-14T12:23:24.113Z,14.57
2023-02-14T12:25:56.569Z,15.68
2023-02-14T12:28:31.521Z,14.40
2023-02-14T12:30:58.824Z,15.38
2023-02-14T12:33:26.619Z,15.27
2023-02-14T12:36:05.340Z,16.23
2023-02-14T12:38:57.814Z,15.68
2023-02-14T12:41:36.810Z,14.80
2023-02-14T12:44:12.483Z,14.82
2023-02-14T12:47:05.336Z,16.02
2023-02-14T12:49:40.682Z,16.55
2023-02-14T12:52:16.278Z,16.17
2023-02-14T12:54:48.410Z,17.00
2023-02-14T12:57:24.653Z,16.23
2023-02-14T13:00:03.007Z,16.23
2023-02-14T13:02:51.033Z,16.63
2023-02-14T13:05:48.724Z,15.60
2023-02-14T13:08:18.194Z,15.73
2023-02-14T13:10:54.668Z,15.30
2023-02-14T13:13:40.187Z,16.85
2023-02-14T13:16:22.118Z,16.33
2023-02-14T13:18:54.953Z,16.42
2023-02-14T13:21:33.647Z,16.40
2023-02-14T13:24:24.343Z,15.93
2023-02-14T13:26:59.114Z,18.33
2023-02-14T13:29:44.531Z,16.63
2023-02-14T13:32:14.281Z,15.90
2023-02-14T13:34:46.827Z,16.55
2023-02-14T13:37:22.836Z,16.92
2023-02-14T13:39:59.389Z,17.95
2023-02-14T13:42:49.724Z,17.60
2023-02-14T13:45:40.777Z,17.73
2023-02-14T13:48:13.136Z,17.95
2023-02-14T13:50:50.710Z,22.73
2023-02-14T13:53:41.373Z,18.58
2023-02-14T13:56:16.864Z,17.48
2023-02-14T13:59:24.476Z,17.50
2023-02-14T14:01:51.456Z,17.63
2023-02-14T14:04:30.494Z,16.77
2023-02-14T14:07:02.956Z,17.88
2023-02-14T14:09:41.753Z,19.63
2023-02-14T14:12:26.241Z,17.52
2023-02-14T14:15:04.943Z,17.13
2023-02-14T14:17:36.473Z,21.67
2023-02-14T14:20:24.665Z,18.02
2023-02-14T14:22:55.169Z,18.90
2023-02-14T14:44:17.437Z,16.73
2023-02-14T14:46:45.123Z,17.70
2023-02-14T14:49:12.743Z,17.15
2023-02-14T14:51:40.044Z,17.58
2023-02-14T14:54:12.341Z,17.23
2023-02-14T14:56:50.965Z,17.90
2023-02-14T14:59:27.636Z,17.63
2023-02-14T15:01:54.614Z,17.45
2023-02-14T15:04:29.316Z,17.60
2023-02-14T15:06:57.730Z,18.55
2023-02-14T15:09:31.560Z,18.67
2023-02-14T15:12:19.781Z,17.58
2023-02-14T15:14:54.423Z,16.67
2023-02-14T15:17:32.797Z,17.13
2023-02-14T15:20:04.055Z,17.65
2023-02-14T15:22:41.428Z,16.80
2023-02-14T15:25:10.728Z,18.05
2023-02-14T15:27:41.321Z,17.63
2023-02-14T15:30:23.524Z,17.48
2023-02-14T15:32:51.340Z,16.60
2023-02-14T15:35:24.171Z,15.90
2023-02-14T15:37:52.019Z,16.45
2023-02-14T15:40:24.169Z,15.55
2023-02-14T15:42:56.432Z,17.65
2023-02-14T15:45:27.623Z,17.45
2023-02-14T15:47:59.800Z,18.15
2023-02-14T15:50:31.313Z,16.42
2023-02-14T15:53:08.100Z,18.45
2023-02-14T15:55:36.176Z,15.90
2023-02-14T15:58:08.606Z,16.60
2023-02-14T16:00:35.629Z,16.83
2023-02-14T16:03:10.761Z,17.10
2023-02-14T16:05:37.500Z,16.45
2023-02-14T16:08:05.349Z,15.57
2023-02-14T16:10:34.855Z,16.42
2023-02-14T16:13:06.607Z,16.58
2023-02-14T16:15:38.741Z,17.00
2023-02-14T16:18:32.675Z,18.23
2023-02-14T16:21:11.579Z,17.92
2023-02-14T16:23:38.183Z,17.58
2023-02-14T16:26:08.563Z,18.38
2023-02-14T16:28:36.908Z,20.90
2023-02-14T16:31:06.203Z,19.20
2023-02-14T16:33:35.577Z,19.52
2023-02-14T16:36:14.236Z,19.80
2023-02-14T16:38:44.992Z,19.38
2023-02-14T16:41:20.388Z,17.90
2023-02-14T16:43:48.207Z,19.52
2023-02-14T16:46:16.752Z,19.45
2023-02-14T16:48:43.606Z,20.63
2023-02-14T16:51:14.005Z,21.13
2023-02-14T16:53:42.683Z,21.92
2023-02-14T16:56:17.026Z,20.02
2023-02-14T16:58:43.950Z,21.35
2023-02-14T17:01:10.479Z,22.17
2023-02-14T17:03:36.979Z,20.48
2023-02-14T17:06:03.599Z,21.38
2023-02-14T17:08:31.107Z,22.17
2023-02-14T17:10:58.567Z,22.40
2023-02-14T17:13:27.653Z,20.02
2023-02-14T17:15:55.041Z,18.55
2023-02-14T17:18:23.350Z,17.35
2023-02-14T17:20:49.917Z,17.65
2023-02-14T17:23:16.468Z,16.63
2023-02-14T17:25:43.191Z,20.95
2023-02-14T17:28:10.785Z,15.60
2023-02-14T17:30:37.219Z,14.52
2023-02-14T17:33:04.821Z,17.73
2023-02-14T17:35:33.276Z,14.82
2023-02-14T17:37:59.735Z,19.25
2023-02-14T17:40:28.227Z,19.27
2023-02-14T17:42:54.704Z,18.58
2023-02-14T17:45:21.120Z,22.83
2023-02-14T17:47:47.628Z,23.60
2023-02-14T17:50:15.680Z,35.30
2023-02-14T17:52:42.581Z,33.13
2023-02-14T17:55:09.361Z,28.65
2023-02-14T17:57:36.895Z,23.58
2023-02-14T18:00:05.748Z,23.02
2023-02-14T18:02:32.410Z,22.95
2023-02-14T18:04:59.240Z,23.38
2023-02-14T18:07:25.764Z,23.20
2023-02-14T18:09:52.299Z,21.80
2023-02-14T18:12:18.841Z,23.17
2023-02-14T18:14:45.332Z,23.35
2023-02-14T18:17:12.863Z,23.63
2023-02-14T18:19:39.464Z,21.52
2023-02-14T18:22:05.926Z,29.10
2023-02-14T18:24:32.547Z,22.95
2023-02-14T18:26:59.182Z,24.35
2023-02-14T18:29:26.079Z,25.80
2023-02-14T18:31:53.047Z,22.80
2023-02-14T18:34:19.618Z,22.48
2023-02-14T18:36:46.426Z,24.48
2023-02-14T18:39:12.963Z,24.13
2023-02-14T18:41:39.747Z,25.52
2023-02-14T18:44:07.109Z,24.25
2023-02-14T18:46:35.622Z,24.48
2023-02-14T18:49:05.886Z,29.38
2023-02-14T18:51:39.305Z,29.35
2023-02-14T18:54:06.897Z,30.10
2023-02-14T18:56:36.739Z,28.80
2023-02-14T18:59:06.666Z,25.50
2023-02-14T19:01:39.470Z,24.35
2023-02-14T19:04:08.617Z,25.63
2023-02-14T19:06:35.860Z,24.65
2023-02-14T19:09:03.281Z,25.23
2023-02-14T19:11:31.763Z,24.92
2023-02-14T19:14:00.481Z,25.10
2023-02-14T19:16:33.349Z,24.08
2023-02-14T19:19:02.904Z,25.08
2023-02-14T19:21:33.774Z,25.55
2023-02-14T19:24:01.043Z,25.77
2023-02-14T19:26:32.688Z,25.27
2023-02-14T19:29:02.203Z,26.27
2023-02-14T19:31:29.601Z,26.83
2023-02-14T19:33:56.528Z,26.63
2023-02-14T19:36:23.931Z,27.52
2023-02-14T19:38:52.623Z,26.60
2023-02-14T19:41:23.258Z,26.35
2023-02-14T19:43:53.624Z,25.50
2023-02-14T19:46:21.393Z,26.25
2023-02-14T19:48:48.835Z,25.45
2023-02-14T19:51:36.498Z,25.30
2023-02-14T19:54:05.768Z,24.85
2023-02-14T19:56:36.535Z,26.20
2023-02-14T19:59:09.092Z,24.80
2023-02-14T20:01:42.120Z,25.05
2023-02-14T20:04:14.555Z,25.60
2023-02-14T20:06:42.344Z,24.25
2023-02-14T20:09:09.626Z,25.30
2023-02-14T20:11:50.141Z,24.08
2023-02-14T20:14:28.611Z,24.40
2023-02-14T20:16:58.114Z,24.60
2023-02-14T20:19:27.814Z,23.65
2023-02-14T20:21:54.992Z,23.85
2023-02-14T20:24:24.090Z,24.83
2023-02-14T20:26:51.677Z,23.80
2023-02-14T20:29:19.222Z,24.13
2023-02-14T20:31:48.954Z,24.75
2023-02-14T20:34:16.376Z,24.60
2023-02-14T20:36:43.700Z,25.55
2023-02-14T20:39:12.587Z,24.73
2023-02-14T20:41:39.203Z,25.88
2023-02-14T20:44:09.771Z,27.48
2023-02-14T20:46:36.340Z,25.30
2023-02-14T20:49:03.327Z,26.67
2023-02-14T20:51:29.939Z,26.10
2023-02-14T20:53:56.816Z,25.15
2023-02-14T20:56:23.804Z,25.70
2023-02-14T20:58:50.626Z,25.40
2023-02-14T21:01:20.572Z,25.48
2023-02-14T21:03:50.761Z,25.25
2023-02-14T21:06:19.318Z,25.25
2023-02-14T21:08:46.239Z,26.08
2023-02-14T21:11:15.013Z,25.13
2023-02-14T21:13:41.581Z,24.48
2023-02-14T21:16:10.975Z,24.55
2023-02-14T21:18:38.101Z,24.33
2023-02-14T21:21:32.513Z,24.60
2023-02-14T21:24:00.788Z,25.60
2023-02-14T21:26:27.930Z,26.17
2023-02-14T21:28:54.468Z,26.30
2023-02-14T21:31:21.818Z,25.55
2023-02-14T21:33:53.742Z,26.60
2023-02-14T21:36:21.962Z,25.75
2023-02-14T21:38:48.936Z,27.10
2023-02-14T21:41:18.504Z,26.50
2023-02-14T21:43:46.762Z,25.88
2023-02-14T21:46:18.072Z,26.45
2023-02-14T21:49:03.807Z,25.60
2023-02-14T21:51:31.547Z,24.27
2023-02-14T21:54:01.442Z,25.98
2023-02-14T21:56:28.384Z,26.85
2023-02-14T21:58:55.626Z,27.10
2023-02-14T22:01:28.486Z,24.70
2023-02-14T22:03:56.508Z,26.98
2023-02-14T22:06:23.935Z,27.20
2023-02-14T22:08:55.832Z,26.48
2023-02-14T22:11:23.535Z,26.00
2023-02-14T22:13:50.216Z,26.20
2023-02-14T22:16:19.091Z,27.30
2023-02-14T22:18:47.829Z,26.05
2023-02-14T22:21:17.007Z,26.48
2023-02-14T22:23:44.219Z,26.25
2023-02-14T22:26:13.768Z,26.83
2023-02-14T22:28:41.670Z,27.13
2023-02-14T22:31:08.418Z,28.20
2023-02-14T22:33:37.995Z,26.95
2023-02-14T22:36:05.394Z,27.70
2023-02-14T22:38:32.342Z,26.67
2023-02-14T22:41:08.733Z,28.25
2023-02-14T22:43:36.586Z,27.50
2023-02-14T22:46:05.391Z,28.83
2023-02-14T22:48:34.010Z,29.08
2023-02-14T22:51:29.681Z,27.30
2023-02-14T22:53:59.090Z,27.40
2023-02-14T22:56:28.632Z,27.25
2023-02-14T22:59:00.949Z,27.57
2023-02-14T23:01:28.561Z,27.57
2023-02-14T23:03:57.007Z,29.48
2023-02-14T23:06:25.735Z,28.38
2023-02-14T23:08:52.463Z,30.20
2023-02-14T23:11:27.599Z,30.13
2023-02-14T23:14:13.801Z,29.97
2023-02-14T23:16:59.294Z,31.50
2023-02-14T23:19:47.296Z,27.43
2023-02-14T23:22:21.484Z,30.47
2023-02-14T23:24:50.143Z,29.87
2023-02-14T23:27:19.662Z,29.40
2023-02-14T23:29:46.196Z,28.63
2023-02-14T23:32:13.282Z,29.97
2023-02-14T23:34:41.733Z,30.03
2023-02-14T23:37:09.284Z,30.97
2023-02-14T23:39:36.745Z,31.37
2023-02-14T23:42:11.498Z,31.33
2023-02-14T23:44:38.135Z,31.13
2023-02-14T23:47:06.285Z,31.17
2023-02-14T23:49:34.756Z,31.03
2023-02-14T23:52:02.004Z,31.37
2023-02-14T23:54:28.590Z,31.00
2023-02-14T23:56:55.432Z,29.97
2023-02-14T23:59:22.209Z,31.60
